sensor_id;sensor_type;location;lat;lon;timestamp;P1;durP1;ratioP1;P2;durP2;ratioP2
21281;SDS011;10800;53.096;18.328;2023-05-07T00:05:07;11.90;;;6.73;;
21281;SDS011;10800;53.096;18.328;2023-05-07T00:10:15;9.90;;;5.07;;
21281;SDS011;10800;53.096;18.328;2023-05-07T00:15:21;13.57;;;5.50;;
21281;SDS011;10800;53.096;18.328;2023-05-07T00:20:27;7.23;;;4.97;;
21281;SDS011;10800;53.096;18.328;2023-05-07T00:25:33;8.47;;;4.77;;
21281;SDS011;10800;53.096;18.328;2023-05-07T00:30:42;7.10;;;4.63;;
21281;SDS011;10800;53.096;18.328;2023-05-07T00:35:50;15.37;;;6.53;;
21281;SDS011;10800;53.096;18.328;2023-05-07T00:40:57;13.30;;;6.53;;
21281;SDS011;10800;53.096;18.328;2023-05-07T00:46:03;15.20;;;6.40;;
21281;SDS011;10800;53.096;18.328;2023-05-07T00:51:09;14.20;;;5.90;;
21281;SDS011;10800;53.096;18.328;2023-05-07T00:56:15;17.00;;;5.87;;
21281;SDS011;10800;53.096;18.328;2023-05-07T01:01:24;9.93;;;4.13;;
21281;SDS011;10800;53.096;18.328;2023-05-07T01:06:30;14.03;;;4.87;;
21281;SDS011;10800;53.096;18.328;2023-05-07T01:11:40;10.10;;;4.80;;
21281;SDS011;10800;53.096;18.328;2023-05-07T01:16:50;8.00;;;4.23;;
21281;SDS011;10800;53.096;18.328;2023-05-07T01:22:00;9.63;;;4.47;;
21281;SDS011;10800;53.096;18.328;2023-05-07T01:27:06;15.17;;;5.00;;
21281;SDS011;10800;53.096;18.328;2023-05-07T01:32:11;14.10;;;5.67;;
21281;SDS011;10800;53.096;18.328;2023-05-07T01:37:18;12.00;;;4.93;;
21281;SDS011;10800;53.096;18.328;2023-05-07T01:42:25;9.73;;;4.53;;
21281;SDS011;10800;53.096;18.328;2023-05-07T01:47:32;17.70;;;4.63;;
21281;SDS011;10800;53.096;18.328;2023-05-07T01:52:39;10.87;;;4.33;;
21281;SDS011;10800;53.096;18.328;2023-05-07T01:57:48;8.23;;;4.17;;
21281;SDS011;10800;53.096;18.328;2023-05-07T02:02:54;8.37;;;4.03;;
21281;SDS011;10800;53.096;18.328;2023-05-07T02:08:03;9.03;;;4.10;;
21281;SDS011;10800;53.096;18.328;2023-05-07T02:13:11;7.43;;;4.17;;
21281;SDS011;10800;53.096;18.328;2023-05-07T02:18:17;7.43;;;4.53;;
21281;SDS011;10800;53.096;18.328;2023-05-07T02:23:22;9.93;;;4.03;;
21281;SDS011;10800;53.096;18.328;2023-05-07T02:28:29;12.27;;;4.60;;
21281;SDS011;10800;53.096;18.328;2023-05-07T02:33:34;15.13;;;4.80;;
21281;SDS011;10800;53.096;18.328;2023-05-07T02:38:41;6.53;;;4.10;;
21281;SDS011;10800;53.096;18.328;2023-05-07T02:43:47;9.77;;;4.07;;
21281;SDS011;10800;53.096;18.328;2023-05-07T02:48:52;7.07;;;3.57;;
21281;SDS011;10800;53.096;18.328;2023-05-07T02:53:59;10.47;;;4.27;;
21281;SDS011;10800;53.096;18.328;2023-05-07T02:59:04;5.80;;;3.30;;
21281;SDS011;10800;53.096;18.328;2023-05-07T03:04:10;5.27;;;3.27;;
21281;SDS011;10800;53.096;18.328;2023-05-07T03:09:15;5.47;;;3.03;;
21281;SDS011;10800;53.096;18.328;2023-05-07T03:14:21;7.17;;;4.07;;
21281;SDS011;10800;53.096;18.328;2023-05-07T03:19:26;8.13;;;3.90;;
21281;SDS011;10800;53.096;18.328;2023-05-07T03:24:34;8.40;;;4.50;;
21281;SDS011;10800;53.096;18.328;2023-05-07T03:29:40;9.67;;;3.43;;
21281;SDS011;10800;53.096;18.328;2023-05-07T03:34:47;6.67;;;3.73;;
21281;SDS011;10800;53.096;18.328;2023-05-07T03:39:52;8.57;;;4.80;;
21281;SDS011;10800;53.096;18.328;2023-05-07T03:44:59;9.00;;;4.27;;
21281;SDS011;10800;53.096;18.328;2023-05-07T03:50:28;15.87;;;5.33;;
21281;SDS011;10800;53.096;18.328;2023-05-07T03:55:40;12.47;;;3.77;;
21281;SDS011;10800;53.096;18.328;2023-05-07T04:00:47;4.97;;;3.27;;
21281;SDS011;10800;53.096;18.328;2023-05-07T04:05:59;10.03;;;4.80;;
21281;SDS011;10800;53.096;18.328;2023-05-07T04:11:04;8.33;;;4.83;;
21281;SDS011;10800;53.096;18.328;2023-05-07T04:16:10;8.37;;;4.27;;
21281;SDS011;10800;53.096;18.328;2023-05-07T04:21:21;5.33;;;3.60;;
21281;SDS011;10800;53.096;18.328;2023-05-07T04:26:29;7.97;;;5.20;;
21281;SDS011;10800;53.096;18.328;2023-05-07T04:31:37;7.33;;;4.43;;
21281;SDS011;10800;53.096;18.328;2023-05-07T04:36:43;8.60;;;4.90;;
21281;SDS011;10800;53.096;18.328;2023-05-07T04:41:48;9.10;;;4.13;;
21281;SDS011;10800;53.096;18.328;2023-05-07T04:46:53;11.97;;;5.87;;
21281;SDS011;10800;53.096;18.328;2023-05-07T04:52:03;12.13;;;6.00;;
21281;SDS011;10800;53.096;18.328;2023-05-07T04:57:12;26.00;;;7.97;;
21281;SDS011;10800;53.096;18.328;2023-05-07T05:02:20;19.13;;;6.57;;
21281;SDS011;10800;53.096;18.328;2023-05-07T05:07:26;13.20;;;6.37;;
21281;SDS011;10800;53.096;18.328;2023-05-07T05:12:32;11.17;;;6.10;;
21281;SDS011;10800;53.096;18.328;2023-05-07T05:17:43;11.17;;;5.70;;
21281;SDS011;10800;53.096;18.328;2023-05-07T05:22:49;18.13;;;6.90;;
21281;SDS011;10800;53.096;18.328;2023-05-07T05:27:54;12.93;;;6.77;;
21281;SDS011;10800;53.096;18.328;2023-05-07T05:33:02;14.27;;;5.10;;
21281;SDS011;10800;53.096;18.328;2023-05-07T05:38:07;12.87;;;5.63;;
21281;SDS011;10800;53.096;18.328;2023-05-07T05:43:19;11.70;;;5.47;;
21281;SDS011;10800;53.096;18.328;2023-05-07T05:48:24;11.50;;;4.93;;
21281;SDS011;10800;53.096;18.328;2023-05-07T05:53:29;9.00;;;4.53;;
21281;SDS011;10800;53.096;18.328;2023-05-07T05:58:35;9.87;;;4.77;;
21281;SDS011;10800;53.096;18.328;2023-05-07T06:03:40;5.87;;;3.20;;
21281;SDS011;10800;53.096;18.328;2023-05-07T06:08:45;6.60;;;3.20;;
21281;SDS011;10800;53.096;18.328;2023-05-07T06:13:56;7.40;;;3.83;;
21281;SDS011;10800;53.096;18.328;2023-05-07T06:19:02;6.40;;;3.57;;
21281;SDS011;10800;53.096;18.328;2023-05-07T06:24:07;5.03;;;2.77;;
21281;SDS011;10800;53.096;18.328;2023-05-07T06:29:12;4.07;;;2.57;;
21281;SDS011;10800;53.096;18.328;2023-05-07T06:34:18;5.87;;;3.10;;
21281;SDS011;10800;53.096;18.328;2023-05-07T06:39:23;6.37;;;2.63;;
21281;SDS011;10800;53.096;18.328;2023-05-07T06:44:28;6.77;;;3.30;;
21281;SDS011;10800;53.096;18.328;2023-05-07T06:49:33;4.43;;;2.57;;
21281;SDS011;10800;53.096;18.328;2023-05-07T06:54:41;4.17;;;2.50;;
21281;SDS011;10800;53.096;18.328;2023-05-07T06:59:46;8.67;;;2.80;;
21281;SDS011;10800;53.096;18.328;2023-05-07T07:04:52;5.23;;;2.63;;
21281;SDS011;10800;53.096;18.328;2023-05-07T07:09:57;3.93;;;2.33;;
21281;SDS011;10800;53.096;18.328;2023-05-07T07:15:02;4.13;;;2.27;;
21281;SDS011;10800;53.096;18.328;2023-05-07T07:20:08;3.83;;;2.87;;
21281;SDS011;10800;53.096;18.328;2023-05-07T07:25:15;7.70;;;2.93;;
21281;SDS011;10800;53.096;18.328;2023-05-07T07:30:20;5.47;;;2.80;;
21281;SDS011;10800;53.096;18.328;2023-05-07T07:35:26;4.83;;;2.70;;
21281;SDS011;10800;53.096;18.328;2023-05-07T07:40:31;4.17;;;2.53;;
21281;SDS011;10800;53.096;18.328;2023-05-07T07:45:41;4.97;;;2.27;;
21281;SDS011;10800;53.096;18.328;2023-05-07T07:50:48;4.00;;;2.67;;
21281;SDS011;10800;53.096;18.328;2023-05-07T07:55:57;4.60;;;2.67;;
21281;SDS011;10800;53.096;18.328;2023-05-07T08:01:02;4.97;;;2.63;;
21281;SDS011;10800;53.096;18.328;2023-05-07T08:06:08;4.10;;;2.10;;
21281;SDS011;10800;53.096;18.328;2023-05-07T08:11:14;3.13;;;2.27;;
21281;SDS011;10800;53.096;18.328;2023-05-07T08:16:19;5.70;;;2.90;;
21281;SDS011;10800;53.096;18.328;2023-05-07T08:21:27;3.20;;;1.87;;
21281;SDS011;10800;53.096;18.328;2023-05-07T08:26:35;7.10;;;2.27;;
21281;SDS011;10800;53.096;18.328;2023-05-07T08:31:42;4.30;;;2.33;;
21281;SDS011;10800;53.096;18.328;2023-05-07T08:36:48;4.67;;;2.27;;
21281;SDS011;10800;53.096;18.328;2023-05-07T08:41:54;2.80;;;1.90;;
21281;SDS011;10800;53.096;18.328;2023-05-07T08:47:01;5.37;;;2.20;;
21281;SDS011;10800;53.096;18.328;2023-05-07T08:52:08;3.87;;;1.97;;
21281;SDS011;10800;53.096;18.328;2023-05-07T08:57:14;2.80;;;2.20;;
21281;SDS011;10800;53.096;18.328;2023-05-07T09:02:19;2.73;;;1.70;;
21281;SDS011;10800;53.096;18.328;2023-05-07T09:07:24;3.77;;;1.77;;
21281;SDS011;10800;53.096;18.328;2023-05-07T09:12:30;6.67;;;1.70;;
21281;SDS011;10800;53.096;18.328;2023-05-07T09:17:35;3.80;;;1.80;;
21281;SDS011;10800;53.096;18.328;2023-05-07T09:22:41;3.87;;;1.80;;
21281;SDS011;10800;53.096;18.328;2023-05-07T09:27:47;3.43;;;2.23;;
21281;SDS011;10800;53.096;18.328;2023-05-07T09:32:53;4.93;;;2.50;;
21281;SDS011;10800;53.096;18.328;2023-05-07T09:43:10;4.17;;;1.67;;
21281;SDS011;10800;53.096;18.328;2023-05-07T09:48:17;1.67;;;1.40;;
21281;SDS011;10800;53.096;18.328;2023-05-07T09:53:23;2.20;;;1.57;;
21281;SDS011;10800;53.096;18.328;2023-05-07T09:58:30;2.67;;;1.63;;
21281;SDS011;10800;53.096;18.328;2023-05-07T10:03:39;6.63;;;2.57;;
21281;SDS011;10800;53.096;18.328;2023-05-07T10:08:50;2.20;;;1.80;;
21281;SDS011;10800;53.096;18.328;2023-05-07T10:13:57;5.37;;;2.10;;
21281;SDS011;10800;53.096;18.328;2023-05-07T10:19:04;4.03;;;2.40;;
21281;SDS011;10800;53.096;18.328;2023-05-07T10:24:29;1.47;;;1.20;;
21281;SDS011;10800;53.096;18.328;2023-05-07T10:30:04;2.30;;;1.60;;
21281;SDS011;10800;53.096;18.328;2023-05-07T10:35:21;1.60;;;1.20;;
21281;SDS011;10800;53.096;18.328;2023-05-07T10:40:31;4.23;;;1.97;;
21281;SDS011;10800;53.096;18.328;2023-05-07T10:45:38;3.50;;;1.47;;
21281;SDS011;10800;53.096;18.328;2023-05-07T10:50:43;6.30;;;1.90;;
21281;SDS011;10800;53.096;18.328;2023-05-07T11:12:15;3.10;;;1.90;;
21281;SDS011;10800;53.096;18.328;2023-05-07T11:17:21;4.70;;;1.70;;
21281;SDS011;10800;53.096;18.328;2023-05-07T11:27:44;4.83;;;1.60;;
21281;SDS011;10800;53.096;18.328;2023-05-07T11:32:50;1.50;;;1.40;;
21281;SDS011;10800;53.096;18.328;2023-05-07T11:37:59;4.17;;;2.07;;
21281;SDS011;10800;53.096;18.328;2023-05-07T11:43:12;2.53;;;1.50;;
21281;SDS011;10800;53.096;18.328;2023-05-07T11:48:17;1.73;;;1.47;;
21281;SDS011;10800;53.096;18.328;2023-05-07T11:58:44;2.40;;;1.50;;
21281;SDS011;10800;53.096;18.328;2023-05-07T12:03:51;3.53;;;1.20;;
21281;SDS011;10800;53.096;18.328;2023-05-07T12:08:57;3.20;;;1.43;;
21281;SDS011;10800;53.096;18.328;2023-05-07T12:14:02;3.77;;;1.70;;
21281;SDS011;10800;53.096;18.328;2023-05-07T12:19:09;2.53;;;1.70;;
21281;SDS011;10800;53.096;18.328;2023-05-07T12:24:19;2.47;;;1.50;;
21281;SDS011;10800;53.096;18.328;2023-05-07T12:29:25;1.07;;;0.97;;
21281;SDS011;10800;53.096;18.328;2023-05-07T12:34:31;7.47;;;1.30;;
21281;SDS011;10800;53.096;18.328;2023-05-07T12:39:36;3.37;;;1.80;;
21281;SDS011;10800;53.096;18.328;2023-05-07T12:44:44;3.03;;;1.30;;
21281;SDS011;10800;53.096;18.328;2023-05-07T12:49:50;2.77;;;1.70;;
21281;SDS011;10800;53.096;18.328;2023-05-07T12:54:57;2.07;;;1.30;;
21281;SDS011;10800;53.096;18.328;2023-05-07T13:00:11;2.07;;;1.10;;
21281;SDS011;10800;53.096;18.328;2023-05-07T13:05:17;4.03;;;1.40;;
21281;SDS011;10800;53.096;18.328;2023-05-07T13:10:22;1.47;;;1.30;;
21281;SDS011;10800;53.096;18.328;2023-05-07T13:15:29;2.50;;;1.63;;
21281;SDS011;10800;53.096;18.328;2023-05-07T13:20:34;2.37;;;1.87;;
21281;SDS011;10800;53.096;18.328;2023-05-07T13:25:39;7.13;;;1.40;;
21281;SDS011;10800;53.096;18.328;2023-05-07T13:30:45;1.80;;;1.53;;
21281;SDS011;10800;53.096;18.328;2023-05-07T13:35:51;1.40;;;1.23;;
21281;SDS011;10800;53.096;18.328;2023-05-07T13:40:57;5.60;;;1.87;;
21281;SDS011;10800;53.096;18.328;2023-05-07T13:46:03;3.17;;;1.20;;
21281;SDS011;10800;53.096;18.328;2023-05-07T13:51:08;2.20;;;1.37;;
21281;SDS011;10800;53.096;18.328;2023-05-07T13:56:13;3.33;;;1.47;;
21281;SDS011;10800;53.096;18.328;2023-05-07T14:01:19;2.17;;;1.47;;
21281;SDS011;10800;53.096;18.328;2023-05-07T14:06:26;2.80;;;1.20;;
21281;SDS011;10800;53.096;18.328;2023-05-07T14:11:32;1.93;;;1.03;;
21281;SDS011;10800;53.096;18.328;2023-05-07T14:16:38;1.33;;;1.13;;
21281;SDS011;10800;53.096;18.328;2023-05-07T14:21:44;3.67;;;1.60;;
21281;SDS011;10800;53.096;18.328;2023-05-07T14:26:49;4.77;;;1.60;;
21281;SDS011;10800;53.096;18.328;2023-05-07T14:31:56;3.43;;;1.40;;
21281;SDS011;10800;53.096;18.328;2023-05-07T14:37:01;2.90;;;1.47;;
21281;SDS011;10800;53.096;18.328;2023-05-07T14:42:14;3.80;;;1.27;;
21281;SDS011;10800;53.096;18.328;2023-05-07T14:47:23;3.20;;;1.50;;
21281;SDS011;10800;53.096;18.328;2023-05-07T14:52:46;3.60;;;1.20;;
21281;SDS011;10800;53.096;18.328;2023-05-07T15:03:21;4.57;;;1.57;;
21281;SDS011;10800;53.096;18.328;2023-05-07T15:08:36;2.63;;;1.40;;
21281;SDS011;10800;53.096;18.328;2023-05-07T15:13:41;6.27;;;1.23;;
21281;SDS011;10800;53.096;18.328;2023-05-07T15:18:49;6.20;;;2.93;;
21281;SDS011;10800;53.096;18.328;2023-05-07T15:23:57;1.60;;;1.27;;
21281;SDS011;10800;53.096;18.328;2023-05-07T15:29:02;2.00;;;1.23;;
21281;SDS011;10800;53.096;18.328;2023-05-07T15:34:12;6.97;;;3.67;;
21281;SDS011;10800;53.096;18.328;2023-05-07T15:39:18;7.93;;;4.27;;
21281;SDS011;10800;53.096;18.328;2023-05-07T15:44:28;3.93;;;2.70;;
21281;SDS011;10800;53.096;18.328;2023-05-07T15:49:38;3.07;;;1.90;;
21281;SDS011;10800;53.096;18.328;2023-05-07T15:54:48;5.57;;;2.37;;
21281;SDS011;10800;53.096;18.328;2023-05-07T15:59:53;23.53;;;7.63;;
21281;SDS011;10800;53.096;18.328;2023-05-07T16:05:09;16.93;;;6.10;;
21281;SDS011;10800;53.096;18.328;2023-05-07T16:10:19;9.17;;;2.63;;
21281;SDS011;10800;53.096;18.328;2023-05-07T16:15:24;5.00;;;1.83;;
21281;SDS011;10800;53.096;18.328;2023-05-07T16:20:29;1.30;;;1.10;;
21281;SDS011;10800;53.096;18.328;2023-05-07T16:25:35;5.40;;;1.40;;
21281;SDS011;10800;53.096;18.328;2023-05-07T16:30:41;4.83;;;1.97;;
21281;SDS011;10800;53.096;18.328;2023-05-07T16:35:52;2.30;;;1.20;;
21281;SDS011;10800;53.096;18.328;2023-05-07T16:40:58;2.37;;;1.80;;
21281;SDS011;10800;53.096;18.328;2023-05-07T16:46:04;2.00;;;1.10;;
21281;SDS011;10800;53.096;18.328;2023-05-07T16:51:09;2.37;;;1.67;;
21281;SDS011;10800;53.096;18.328;2023-05-07T16:56:14;2.63;;;1.67;;
21281;SDS011;10800;53.096;18.328;2023-05-07T17:01:20;3.10;;;1.40;;
21281;SDS011;10800;53.096;18.328;2023-05-07T17:06:25;4.73;;;1.57;;
21281;SDS011;10800;53.096;18.328;2023-05-07T17:11:30;4.40;;;2.20;;
21281;SDS011;10800;53.096;18.328;2023-05-07T17:16:37;4.23;;;1.83;;
21281;SDS011;10800;53.096;18.328;2023-05-07T17:21:43;11.97;;;4.70;;
21281;SDS011;10800;53.096;18.328;2023-05-07T17:26:50;11.07;;;2.73;;
21281;SDS011;10800;53.096;18.328;2023-05-07T17:31:55;1.57;;;1.30;;
21281;SDS011;10800;53.096;18.328;2023-05-07T17:37:13;3.80;;;1.43;;
21281;SDS011;10800;53.096;18.328;2023-05-07T17:42:18;3.50;;;1.30;;
21281;SDS011;10800;53.096;18.328;2023-05-07T17:47:24;4.63;;;1.20;;
21281;SDS011;10800;53.096;18.328;2023-05-07T17:52:33;3.50;;;1.70;;
21281;SDS011;10800;53.096;18.328;2023-05-07T17:57:40;3.77;;;1.70;;
21281;SDS011;10800;53.096;18.328;2023-05-07T18:02:50;4.60;;;1.20;;
21281;SDS011;10800;53.096;18.328;2023-05-07T18:08:05;1.90;;;1.20;;
21281;SDS011;10800;53.096;18.328;2023-05-07T18:13:14;4.80;;;1.80;;
21281;SDS011;10800;53.096;18.328;2023-05-07T18:18:19;4.13;;;2.20;;
21281;SDS011;10800;53.096;18.328;2023-05-07T18:23:34;4.27;;;1.93;;
21281;SDS011;10800;53.096;18.328;2023-05-07T18:28:40;6.37;;;2.53;;
21281;SDS011;10800;53.096;18.328;2023-05-07T18:33:50;9.20;;;2.90;;
21281;SDS011;10800;53.096;18.328;2023-05-07T18:38:58;6.40;;;3.50;;
21281;SDS011;10800;53.096;18.328;2023-05-07T18:44:04;9.47;;;4.00;;
21281;SDS011;10800;53.096;18.328;2023-05-07T18:49:10;9.40;;;4.00;;
21281;SDS011;10800;53.096;18.328;2023-05-07T18:54:18;10.23;;;4.77;;
21281;SDS011;10800;53.096;18.328;2023-05-07T18:59:24;13.67;;;5.20;;
21281;SDS011;10800;53.096;18.328;2023-05-07T19:04:29;11.97;;;4.57;;
21281;SDS011;10800;53.096;18.328;2023-05-07T19:09:34;15.50;;;5.70;;
21281;SDS011;10800;53.096;18.328;2023-05-07T19:14:40;14.00;;;4.60;;
21281;SDS011;10800;53.096;18.328;2023-05-07T19:19:46;12.20;;;4.30;;
21281;SDS011;10800;53.096;18.328;2023-05-07T19:24:52;10.13;;;4.47;;
21281;SDS011;10800;53.096;18.328;2023-05-07T19:29:59;11.17;;;4.33;;
21281;SDS011;10800;53.096;18.328;2023-05-07T19:35:04;6.23;;;2.77;;
21281;SDS011;10800;53.096;18.328;2023-05-07T19:40:10;6.00;;;2.80;;
21281;SDS011;10800;53.096;18.328;2023-05-07T19:45:17;8.03;;;3.83;;
21281;SDS011;10800;53.096;18.328;2023-05-07T19:50:22;25.20;;;5.17;;
21281;SDS011;10800;53.096;18.328;2023-05-07T19:55:27;63.13;;;12.63;;
21281;SDS011;10800;53.096;18.328;2023-05-07T20:00:32;36.53;;;8.93;;
21281;SDS011;10800;53.096;18.328;2023-05-07T20:05:38;33.87;;;10.17;;
21281;SDS011;10800;53.096;18.328;2023-05-07T20:10:44;26.70;;;7.10;;
21281;SDS011;10800;53.096;18.328;2023-05-07T20:15:49;17.30;;;7.10;;
21281;SDS011;10800;53.096;18.328;2023-05-07T20:20:54;21.70;;;7.93;;
21281;SDS011;10800;53.096;18.328;2023-05-07T20:26:02;29.97;;;11.87;;
21281;SDS011;10800;53.096;18.328;2023-05-07T20:31:08;25.23;;;11.10;;
21281;SDS011;10800;53.096;18.328;2023-05-07T20:36:13;35.90;;;8.27;;
21281;SDS011;10800;53.096;18.328;2023-05-07T20:41:18;20.77;;;9.20;;
21281;SDS011;10800;53.096;18.328;2023-05-07T20:46:24;19.20;;;7.90;;
21281;SDS011;10800;53.096;18.328;2023-05-07T20:51:30;22.13;;;8.87;;
21281;SDS011;10800;53.096;18.328;2023-05-07T20:56:35;16.33;;;7.70;;
21281;SDS011;10800;53.096;18.328;2023-05-07T21:01:43;13.07;;;5.07;;
21281;SDS011;10800;53.096;18.328;2023-05-07T21:06:54;14.30;;;4.80;;
21281;SDS011;10800;53.096;18.328;2023-05-07T21:12:00;6.73;;;4.40;;
21281;SDS011;10800;53.096;18.328;2023-05-07T21:17:10;13.10;;;4.87;;
21281;SDS011;10800;53.096;18.328;2023-05-07T21:22:18;8.27;;;4.00;;
21281;SDS011;10800;53.096;18.328;2023-05-07T21:27:26;13.57;;;4.50;;
21281;SDS011;10800;53.096;18.328;2023-05-07T21:32:31;10.43;;;4.70;;
21281;SDS011;10800;53.096;18.328;2023-05-07T21:37:40;11.80;;;6.00;;
21281;SDS011;10800;53.096;18.328;2023-05-07T21:42:51;17.43;;;6.67;;
21281;SDS011;10800;53.096;18.328;2023-05-07T21:47:56;16.93;;;5.70;;
21281;SDS011;10800;53.096;18.328;2023-05-07T21:53:05;9.80;;;4.20;;
21281;SDS011;10800;53.096;18.328;2023-05-07T21:58:11;12.17;;;5.23;;
21281;SDS011;10800;53.096;18.328;2023-05-07T22:03:39;11.83;;;5.20;;
21281;SDS011;10800;53.096;18.328;2023-05-07T22:09:06;12.83;;;5.23;;
21281;SDS011;10800;53.096;18.328;2023-05-07T22:14:11;15.87;;;5.17;;
21281;SDS011;10800;53.096;18.328;2023-05-07T22:19:16;12.20;;;5.50;;
21281;SDS011;10800;53.096;18.328;2023-05-07T22:24:21;16.40;;;5.97;;
21281;SDS011;10800;53.096;18.328;2023-05-07T22:29:46;13.67;;;5.17;;
21281;SDS011;10800;53.096;18.328;2023-05-07T22:34:53;9.87;;;5.23;;
21281;SDS011;10800;53.096;18.328;2023-05-07T22:40:00;9.70;;;5.17;;
21281;SDS011;10800;53.096;18.328;2023-05-07T22:45:08;14.63;;;4.13;;
21281;SDS011;10800;53.096;18.328;2023-05-07T22:50:14;10.20;;;4.47;;
21281;SDS011;10800;53.096;18.328;2023-05-07T22:55:33;9.63;;;3.87;;
21281;SDS011;10800;53.096;18.328;2023-05-07T23:00:44;5.17;;;3.70;;
21281;SDS011;10800;53.096;18.328;2023-05-07T23:06:04;7.30;;;3.73;;
21281;SDS011;10800;53.096;18.328;2023-05-07T23:11:46;7.70;;;3.57;;
21281;SDS011;10800;53.096;18.328;2023-05-07T23:16:59;7.03;;;3.77;;
21281;SDS011;10800;53.096;18.328;2023-05-07T23:22:11;5.87;;;3.60;;
21281;SDS011;10800;53.096;18.328;2023-05-07T23:27:18;12.07;;;4.50;;
21281;SDS011;10800;53.096;18.328;2023-05-07T23:32:23;12.30;;;4.20;;
21281;SDS011;10800;53.096;18.328;2023-05-07T23:37:40;7.63;;;4.37;;
21281;SDS011;10800;53.096;18.328;2023-05-07T23:42:58;12.00;;;4.90;;
21281;SDS011;10800;53.096;18.328;2023-05-07T23:48:05;8.27;;;4.43;;
21281;SDS011;10800;53.096;18.328;2023-05-07T23:59:27;12.83;;;4.13;;
